sensor_id;sensor_type;location;lat;lon;timestamp;pressure;altitude;pressure_sealevel;temperature;humidity
72921;BME280;61064;51.654;5.476;2024-02-26T00:01:27;99885.66;;;6.80;91.80
72921;BME280;61064;51.654;5.476;2024-02-26T00:03:52;99888.28;;;6.83;91.68
72921;BME280;61064;51.654;5.476;2024-02-26T00:06:19;99877.69;;;6.81;91.46
72921;BME280;61064;51.654;5.476;2024-02-26T00:08:50;99889.19;;;6.85;91.30
72921;BME280;61064;51.654;5.476;2024-02-26T00:11:21;99891.84;;;6.85;91.38
72921;BME280;61064;51.654;5.476;2024-02-26T00:13:47;99882.13;;;6.79;91.45
72921;BME280;61064;51.654;5.476;2024-02-26T00:16:15;99891.81;;;6.79;91.51
72921;BME280;61064;51.654;5.476;2024-02-26T00:18:40;99912.97;;;6.86;91.38
72921;BME280;61064;51.654;5.476;2024-02-26T00:21:06;99897.97;;;6.81;91.70
72921;BME280;61064;51.654;5.476;2024-02-26T00:23:31;99905.03;;;6.83;91.71
72921;BME280;61064;51.654;5.476;2024-02-26T00:25:57;99904.16;;;6.80;91.62
72921;BME280;61064;51.654;5.476;2024-02-26T00:28:22;99916.53;;;6.88;91.56
72921;BME280;61064;51.654;5.476;2024-02-26T00:30:49;99898.00;;;6.85;91.53
72921;BME280;61064;51.654;5.476;2024-02-26T00:33:16;99908.59;;;6.85;91.49
72921;BME280;61064;51.654;5.476;2024-02-26T00:35:42;99907.69;;;6.86;91.73
72921;BME280;61064;51.654;5.476;2024-02-26T00:38:07;99908.56;;;6.82;91.72
72921;BME280;61064;51.654;5.476;2024-02-26T00:40:33;99897.13;;;6.85;91.89
72921;BME280;61064;51.654;5.476;2024-02-26T00:42:58;99913.00;;;6.85;91.85
72921;BME280;61064;51.654;5.476;2024-02-26T00:45:23;99897.94;;;6.78;92.03
72921;BME280;61064;51.654;5.476;2024-02-26T00:47:49;99895.28;;;6.75;92.21
72921;BME280;61064;51.654;5.476;2024-02-26T00:50:15;99891.78;;;6.74;92.30
72921;BME280;61064;51.654;5.476;2024-02-26T00:52:40;99894.41;;;6.74;92.55
72921;BME280;61064;51.654;5.476;2024-02-26T00:55:06;99886.44;;;6.66;92.84
72921;BME280;61064;51.654;5.476;2024-02-26T00:57:32;99890.84;;;6.67;92.78
72921;BME280;61064;51.654;5.476;2024-02-26T00:59:57;99886.38;;;6.63;92.51
72921;BME280;61064;51.654;5.476;2024-02-26T01:02:23;99887.28;;;6.64;92.83
72921;BME280;61064;51.654;5.476;2024-02-26T01:04:53;99894.28;;;6.59;92.72
72921;BME280;61064;51.654;5.476;2024-02-26T01:07:19;99913.69;;;6.64;92.82
72921;BME280;61064;51.654;5.476;2024-02-26T01:09:44;99912.81;;;6.57;93.05
72921;BME280;61064;51.654;5.476;2024-02-26T01:12:09;99912.81;;;6.57;93.47
72921;BME280;61064;51.654;5.476;2024-02-26T01:14:35;99902.13;;;6.47;93.39
72921;BME280;61064;51.654;5.476;2024-02-26T01:17:00;99913.63;;;6.52;93.67
72921;BME280;61064;51.654;5.476;2024-02-26T01:19:25;99895.97;;;6.45;94.05
72921;BME280;61064;51.654;5.476;2024-02-26T01:21:51;99921.50;;;6.47;94.04
72921;BME280;61064;51.654;5.476;2024-02-26T01:24:16;99910.03;;;6.44;94.09
72921;BME280;61064;51.654;5.476;2024-02-26T01:26:42;99918.81;;;6.41;94.43
72921;BME280;61064;51.654;5.476;2024-02-26T01:29:07;99925.00;;;6.40;94.42
72921;BME280;61064;51.654;5.476;2024-02-26T01:31:33;99932.00;;;6.41;94.86
72921;BME280;61064;51.654;5.476;2024-02-26T01:33:58;99921.44;;;6.35;94.69
72921;BME280;61064;51.654;5.476;2024-02-26T01:36:23;99908.22;;;6.35;95.00
72921;BME280;61064;51.654;5.476;2024-02-26T01:38:49;99910.81;;;6.32;95.09
72921;BME280;61064;51.654;5.476;2024-02-26T01:41:14;99919.63;;;6.30;95.10
72921;BME280;61064;51.654;5.476;2024-02-26T01:43:40;99919.56;;;6.26;95.32
72921;BME280;61064;51.654;5.476;2024-02-26T01:46:06;99920.47;;;6.29;95.54
72921;BME280;61064;51.654;5.476;2024-02-26T01:48:32;99926.63;;;6.26;95.56
72921;BME280;61064;51.654;5.476;2024-02-26T01:50:57;99922.19;;;6.22;95.36
72921;BME280;61064;51.654;5.476;2024-02-26T01:53:23;99915.09;;;6.16;95.63
72921;BME280;61064;51.654;5.476;2024-02-26T01:55:49;99930.03;;;6.16;95.87
72921;BME280;61064;51.654;5.476;2024-02-26T01:58:15;99951.25;;;6.23;95.68
72921;BME280;61064;51.654;5.476;2024-02-26T02:00:41;99936.25;;;6.18;95.76
72921;BME280;61064;51.654;5.476;2024-02-26T02:03:07;99938.00;;;6.17;95.96
72921;BME280;61064;51.654;5.476;2024-02-26T02:05:33;99944.19;;;6.21;95.92
72921;BME280;61064;51.654;5.476;2024-02-26T02:07:58;99955.63;;;6.21;96.24
72921;BME280;61064;51.654;5.476;2024-02-26T02:10:25;99959.09;;;6.19;96.03
72921;BME280;61064;51.654;5.476;2024-02-26T02:12:51;99951.19;;;6.19;96.20
72921;BME280;61064;51.654;5.476;2024-02-26T02:15:20;99954.72;;;6.18;96.36
72921;BME280;61064;51.654;5.476;2024-02-26T02:17:45;99937.03;;;6.11;96.53
72921;BME280;61064;51.654;5.476;2024-02-26T02:20:32;99954.69;;;6.16;96.32
72921;BME280;61064;51.654;5.476;2024-02-26T02:22:58;99944.97;;;6.11;96.52
72921;BME280;61064;51.654;5.476;2024-02-26T02:25:23;99951.09;;;6.08;96.61
72921;BME280;61064;51.654;5.476;2024-02-26T02:27:49;99945.81;;;6.07;96.61
72921;BME280;61064;51.654;5.476;2024-02-26T02:30:14;99936.06;;;6.03;96.83
72921;BME280;61064;51.654;5.476;2024-02-26T02:32:40;99959.88;;;6.06;96.56
72921;BME280;61064;51.654;5.476;2024-02-26T02:35:07;99946.69;;;6.06;96.88
72921;BME280;61064;51.654;5.476;2024-02-26T02:37:35;99936.97;;;6.02;96.72
72921;BME280;61064;51.654;5.476;2024-02-26T02:40:02;99928.09;;;5.95;97.00
72921;BME280;61064;51.654;5.476;2024-02-26T02:42:28;99927.19;;;5.95;97.26
72921;BME280;61064;51.654;5.476;2024-02-26T02:44:56;99940.41;;;5.98;97.32
72921;BME280;61064;51.654;5.476;2024-02-26T02:47:22;99950.09;;;5.96;97.27
72921;BME280;61064;51.654;5.476;2024-02-26T02:49:47;99947.44;;;5.94;97.59
72921;BME280;61064;51.654;5.476;2024-02-26T02:52:12;99952.69;;;5.93;97.40
72921;BME280;61064;51.654;5.476;2024-02-26T02:54:38;99942.03;;;5.86;97.68
72921;BME280;61064;51.654;5.476;2024-02-26T02:57:05;99939.38;;;5.86;97.75
72921;BME280;61064;51.654;5.476;2024-02-26T02:59:31;99955.31;;;5.90;97.82
72921;BME280;61064;51.654;5.476;2024-02-26T03:01:56;99948.22;;;5.87;97.79
72921;BME280;61064;51.654;5.476;2024-02-26T03:04:21;99947.28;;;5.83;98.06
72921;BME280;61064;51.654;5.476;2024-02-26T03:06:47;99950.78;;;5.82;98.04
72921;BME280;61064;51.654;5.476;2024-02-26T03:09:15;99947.25;;;5.82;98.36
72921;BME280;61064;51.654;5.476;2024-02-26T03:11:41;99957.78;;;5.80;98.17
72921;BME280;61064;51.654;5.476;2024-02-26T03:14:06;99957.78;;;5.80;98.36
72921;BME280;61064;51.654;5.476;2024-02-26T03:16:32;99963.97;;;5.79;98.30
72921;BME280;61064;51.654;5.476;2024-02-26T03:18:57;99970.06;;;5.77;98.38
72921;BME280;61064;51.654;5.476;2024-02-26T03:21:25;99964.78;;;5.74;98.60
72921;BME280;61064;51.654;5.476;2024-02-26T03:23:50;99949.72;;;5.67;98.71
72921;BME280;61064;51.654;5.476;2024-02-26T03:26:15;99954.06;;;5.63;98.57
72921;BME280;61064;51.654;5.476;2024-02-26T03:28:41;99948.75;;;5.57;98.69
72921;BME280;61064;51.654;5.476;2024-02-26T03:31:06;99946.09;;;5.56;98.69
72921;BME280;61064;51.654;5.476;2024-02-26T03:33:32;99948.75;;;5.59;98.88
72921;BME280;61064;51.654;5.476;2024-02-26T03:35:57;99955.78;;;5.58;98.76
72921;BME280;61064;51.654;5.476;2024-02-26T03:38:22;99947.84;;;5.55;99.20
72921;BME280;61064;51.654;5.476;2024-02-26T03:40:48;99940.81;;;5.56;99.31
72921;BME280;61064;51.654;5.476;2024-02-26T03:43:13;99937.19;;;5.46;99.46
72921;BME280;61064;51.654;5.476;2024-02-26T03:45:39;99938.13;;;5.51;99.21
72921;BME280;61064;51.654;5.476;2024-02-26T03:48:04;99942.56;;;5.55;99.35
72921;BME280;61064;51.654;5.476;2024-02-26T03:50:30;99952.25;;;5.56;99.33
72921;BME280;61064;51.654;5.476;2024-02-26T03:52:58;99945.16;;;5.51;99.66
72921;BME280;61064;51.654;5.476;2024-02-26T03:55:23;99943.38;;;5.50;99.55
72921;BME280;61064;51.654;5.476;2024-02-26T03:57:53;99937.19;;;5.48;99.79
72921;BME280;61064;51.654;5.476;2024-02-26T04:00:19;99949.59;;;5.55;99.92
72921;BME280;61064;51.654;5.476;2024-02-26T04:02:46;99951.34;;;5.54;99.86
72921;BME280;61064;51.654;5.476;2024-02-26T04:05:13;99954.03;;;5.57;99.80
72921;BME280;61064;51.654;5.476;2024-02-26T04:07:39;99945.97;;;5.45;99.83
72921;BME280;61064;51.654;5.476;2024-02-26T04:10:14;99959.28;;;5.56;99.82
72921;BME280;61064;51.654;5.476;2024-02-26T04:12:41;99959.22;;;5.53;100.00
72921;BME280;61064;51.654;5.476;2024-02-26T04:15:08;99964.56;;;5.56;99.90
72921;BME280;61064;51.654;5.476;2024-02-26T04:17:33;99961.00;;;5.54;100.00
72921;BME280;61064;51.654;5.476;2024-02-26T04:19:58;99957.44;;;5.50;100.00
72921;BME280;61064;51.654;5.476;2024-02-26T04:22:24;99964.53;;;5.54;100.00
72921;BME280;61064;51.654;5.476;2024-02-26T04:24:49;99973.34;;;5.56;100.00
72921;BME280;61064;51.654;5.476;2024-02-26T04:27:14;99975.97;;;5.55;100.00
72921;BME280;61064;51.654;5.476;2024-02-26T04:29:40;99980.34;;;5.54;100.00
72921;BME280;61064;51.654;5.476;2024-02-26T04:32:05;99986.59;;;5.61;100.00
72921;BME280;61064;51.654;5.476;2024-02-26T04:34:31;99985.72;;;5.60;100.00
72921;BME280;61064;51.654;5.476;2024-02-26T04:36:57;99983.94;;;5.59;100.00
72921;BME280;61064;51.654;5.476;2024-02-26T04:39:22;99972.44;;;5.54;100.00
72921;BME280;61064;51.654;5.476;2024-02-26T04:41:47;99981.28;;;5.59;100.00
72921;BME280;61064;51.654;5.476;2024-02-26T04:44:12;99987.44;;;5.58;100.00
72921;BME280;61064;51.654;5.476;2024-02-26T04:46:38;99984.75;;;5.55;100.00
72921;BME280;61064;51.654;5.476;2024-02-26T04:49:03;99987.38;;;5.54;100.00
72921;BME280;61064;51.654;5.476;2024-02-26T04:51:28;99983.84;;;5.53;100.00
72921;BME280;61064;51.654;5.476;2024-02-26T04:53:54;99982.09;;;5.54;100.00
72921;BME280;61064;51.654;5.476;2024-02-26T04:56:22;99978.50;;;5.47;100.00
72921;BME280;61064;51.654;5.476;2024-02-26T04:58:48;99980.25;;;5.45;100.00
72921;BME280;61064;51.654;5.476;2024-02-26T05:01:14;100002.38;;;5.56;100.00
72921;BME280;61064;51.654;5.476;2024-02-26T05:03:41;99989.97;;;5.49;100.00
72921;BME280;61064;51.654;5.476;2024-02-26T05:06:09;99990.88;;;5.51;100.00
72921;BME280;61064;51.654;5.476;2024-02-26T05:08:35;100004.97;;;5.55;100.00
72921;BME280;61064;51.654;5.476;2024-02-26T05:11:07;100003.22;;;5.55;100.00
72921;BME280;61064;51.654;5.476;2024-02-26T05:13:32;100002.28;;;5.50;100.00
72921;BME280;61064;51.654;5.476;2024-02-26T05:15:58;100018.19;;;5.56;100.00
72921;BME280;61064;51.654;5.476;2024-02-26T05:18:24;100007.66;;;5.56;100.00
72921;BME280;61064;51.654;5.476;2024-02-26T05:20:49;99998.75;;;5.50;100.00
72921;BME280;61064;51.654;5.476;2024-02-26T05:23:14;100008.47;;;5.54;100.00
72921;BME280;61064;51.654;5.476;2024-02-26T05:25:43;100009.34;;;5.53;100.00
72921;BME280;61064;51.654;5.476;2024-02-26T05:28:10;99999.59;;;5.47;100.00
72921;BME280;61064;51.654;5.476;2024-02-26T05:30:39;100009.31;;;5.50;100.00
72921;BME280;61064;51.654;5.476;2024-02-26T05:33:05;100002.22;;;5.44;100.00
72921;BME280;61064;51.654;5.476;2024-02-26T05:35:30;100015.47;;;5.50;100.00
72921;BME280;61064;51.654;5.476;2024-02-26T05:37:56;100009.25;;;5.45;100.00
72921;BME280;61064;51.654;5.476;2024-02-26T05:40:21;100016.31;;;5.48;100.00
72921;BME280;61064;51.654;5.476;2024-02-26T05:42:46;100015.44;;;5.46;100.00
72921;BME280;61064;51.654;5.476;2024-02-26T05:45:12;100018.03;;;5.44;100.00
72921;BME280;61064;51.654;5.476;2024-02-26T05:47:37;100018.06;;;5.46;100.00
72921;BME280;61064;51.654;5.476;2024-02-26T05:50:10;100019.75;;;5.42;100.00
72921;BME280;61064;51.654;5.476;2024-02-26T05:52:40;100026.88;;;5.46;100.00
72921;BME280;61064;51.654;5.476;2024-02-26T05:55:06;100043.56;;;5.48;100.00
72921;BME280;61064;51.654;5.476;2024-02-26T05:57:36;100023.25;;;5.41;100.00
72921;BME280;61064;51.654;5.476;2024-02-26T06:00:04;100047.06;;;5.46;100.00
72921;BME280;61064;51.654;5.476;2024-02-26T06:02:30;100042.63;;;5.43;100.00
72921;BME280;61064;51.654;5.476;2024-02-26T06:04:56;100046.97;;;5.41;100.00
72921;BME280;61064;51.654;5.476;2024-02-26T06:07:22;100041.72;;;5.39;100.00
72921;BME280;61064;51.654;5.476;2024-02-26T06:09:47;100049.66;;;5.42;100.00
72921;BME280;61064;51.654;5.476;2024-02-26T06:12:13;100049.63;;;5.39;100.00
72921;BME280;61064;51.654;5.476;2024-02-26T06:14:39;100047.88;;;5.40;100.00
72921;BME280;61064;51.654;5.476;2024-02-26T06:17:04;100051.38;;;5.39;100.00
72921;BME280;61064;51.654;5.476;2024-02-26T06:19:30;100046.94;;;5.35;100.00
72921;BME280;61064;51.654;5.476;2024-02-26T06:21:55;100053.06;;;5.34;100.00
72921;BME280;61064;51.654;5.476;2024-02-26T06:24:20;100059.28;;;5.39;100.00
72921;BME280;61064;51.654;5.476;2024-02-26T06:26:47;100076.88;;;5.40;100.00
72921;BME280;61064;51.654;5.476;2024-02-26T06:29:13;100071.56;;;5.37;100.00
72921;BME280;61064;51.654;5.476;2024-02-26T06:31:38;100075.03;;;5.36;100.00
72921;BME280;61064;51.654;5.476;2024-02-26T06:34:06;100079.44;;;5.35;100.00
72921;BME280;61064;51.654;5.476;2024-02-26T06:36:31;100082.06;;;5.35;100.00
72921;BME280;61064;51.654;5.476;2024-02-26T06:38:57;100087.38;;;5.37;100.00
72921;BME280;61064;51.654;5.476;2024-02-26T06:41:26;100090.84;;;5.33;100.00
72921;BME280;61064;51.654;5.476;2024-02-26T06:43:56;100097.03;;;5.35;100.00
72921;BME280;61064;51.654;5.476;2024-02-26T06:46:22;100090.81;;;5.31;100.00
72921;BME280;61064;51.654;5.476;2024-02-26T06:48:48;100080.22;;;5.28;100.00
72921;BME280;61064;51.654;5.476;2024-02-26T06:51:14;100102.25;;;5.32;100.00
72921;BME280;61064;51.654;5.476;2024-02-26T06:53:39;100096.03;;;5.30;100.00
72921;BME280;61064;51.654;5.476;2024-02-26T06:56:05;100095.19;;;5.29;100.00
72921;BME280;61064;51.654;5.476;2024-02-26T06:58:33;100098.59;;;5.22;100.00
72921;BME280;61064;51.654;5.476;2024-02-26T07:00:59;100100.38;;;5.25;100.00
72921;BME280;61064;51.654;5.476;2024-02-26T07:03:27;100118.94;;;5.31;100.00
72921;BME280;61064;51.654;5.476;2024-02-26T07:05:52;100101.25;;;5.24;100.00
72921;BME280;61064;51.654;5.476;2024-02-26T07:08:21;100120.63;;;5.27;100.00
72921;BME280;61064;51.654;5.476;2024-02-26T07:10:46;100119.72;;;5.24;100.00
72921;BME280;61064;51.654;5.476;2024-02-26T07:13:12;100111.75;;;5.21;100.00
72921;BME280;61064;51.654;5.476;2024-02-26T07:15:40;100141.78;;;5.29;100.00
72921;BME280;61064;51.654;5.476;2024-02-26T07:18:06;100138.22;;;5.27;100.00
72921;BME280;61064;51.654;5.476;2024-02-26T07:20:31;100129.28;;;5.17;100.00
72921;BME280;61064;51.654;5.476;2024-02-26T07:23:03;100129.22;;;5.16;100.00
72921;BME280;61064;51.654;5.476;2024-02-26T07:25:34;100129.22;;;5.16;100.00
72921;BME280;61064;51.654;5.476;2024-02-26T07:27:59;100138.97;;;5.20;100.00
72921;BME280;61064;51.654;5.476;2024-02-26T07:30:25;100139.84;;;5.20;100.00
72921;BME280;61064;51.654;5.476;2024-02-26T07:32:50;100147.84;;;5.25;100.00
72921;BME280;61064;51.654;5.476;2024-02-26T07:35:16;100148.66;;;5.21;100.00
72921;BME280;61064;51.654;5.476;2024-02-26T07:37:42;100149.56;;;5.24;100.00
72921;BME280;61064;51.654;5.476;2024-02-26T07:40:08;100156.69;;;5.28;100.00
72921;BME280;61064;51.654;5.476;2024-02-26T07:42:34;100145.16;;;5.22;100.00
72921;BME280;61064;51.654;5.476;2024-02-26T07:44:59;100160.22;;;5.29;100.00
72921;BME280;61064;51.654;5.476;2024-02-26T07:47:25;100159.28;;;5.25;100.00
72921;BME280;61064;51.654;5.476;2024-02-26T07:49:50;100170.78;;;5.30;100.00
72921;BME280;61064;51.654;5.476;2024-02-26T07:52:33;100169.84;;;5.27;100.00
72921;BME280;61064;51.654;5.476;2024-02-26T07:54:58;100168.94;;;5.25;100.00
72921;BME280;61064;51.654;5.476;2024-02-26T07:57:24;100167.19;;;5.25;100.00
72921;BME280;61064;51.654;5.476;2024-02-26T07:59:49;100177.72;;;5.25;100.00
72921;BME280;61064;51.654;5.476;2024-02-26T08:02:15;100179.47;;;5.23;100.00
72921;BME280;61064;51.654;5.476;2024-02-26T08:04:41;100177.72;;;5.24;100.00
72921;BME280;61064;51.654;5.476;2024-02-26T08:07:06;100192.75;;;5.31;100.00
72921;BME280;61064;51.654;5.476;2024-02-26T08:09:32;100183.88;;;5.26;100.00
72921;BME280;61064;51.654;5.476;2024-02-26T08:11:57;100190.97;;;5.30;100.00
72921;BME280;61064;51.654;5.476;2024-02-26T08:14:22;100190.19;;;5.34;100.00
72921;BME280;61064;51.654;5.476;2024-02-26T08:16:48;100184.75;;;5.25;100.00
72921;BME280;61064;51.654;5.476;2024-02-26T08:19:14;100196.31;;;5.33;100.00
72921;BME280;61064;51.654;5.476;2024-02-26T08:21:41;100210.44;;;5.36;100.00
72921;BME280;61064;51.654;5.476;2024-02-26T08:24:06;100214.91;;;5.39;100.00
72921;BME280;61064;51.654;5.476;2024-02-26T08:26:32;100224.59;;;5.40;100.00
72921;BME280;61064;51.654;5.476;2024-02-26T08:28:57;100211.34;;;5.37;100.00
72921;BME280;61064;51.654;5.476;2024-02-26T08:31:23;100219.25;;;5.37;100.00
72921;BME280;61064;51.654;5.476;2024-02-26T08:33:49;100233.41;;;5.42;100.00
72921;BME280;61064;51.654;5.476;2024-02-26T08:36:14;100224.56;;;5.38;100.00
72921;BME280;61064;51.654;5.476;2024-02-26T08:38:39;100230.75;;;5.42;100.00
72921;BME280;61064;51.654;5.476;2024-02-26T08:41:05;100228.13;;;5.40;100.00
72921;BME280;61064;51.654;5.476;2024-02-26T08:43:30;100225.44;;;5.39;100.00
72921;BME280;61064;51.654;5.476;2024-02-26T08:45:57;100239.63;;;5.46;100.00
72921;BME280;61064;51.654;5.476;2024-02-26T08:48:22;100227.22;;;5.40;100.00
72921;BME280;61064;51.654;5.476;2024-02-26T08:50:47;100232.50;;;5.40;100.00
72921;BME280;61064;51.654;5.476;2024-02-26T08:53:13;100237.00;;;5.46;100.00
72921;BME280;61064;51.654;5.476;2024-02-26T08:55:38;100255.50;;;5.49;100.00
72921;BME280;61064;51.654;5.476;2024-02-26T08:58:03;100261.69;;;5.51;100.00
72921;BME280;61064;51.654;5.476;2024-02-26T09:00:29;100262.59;;;5.51;100.00
72921;BME280;61064;51.654;5.476;2024-02-26T09:02:54;100259.06;;;5.51;100.00
72921;BME280;61064;51.654;5.476;2024-02-26T09:05:20;100258.19;;;5.50;100.00
72921;BME280;61064;51.654;5.476;2024-02-26T09:07:45;100246.75;;;5.51;100.00
72921;BME280;61064;51.654;5.476;2024-02-26T09:10:11;100261.78;;;5.55;100.00
72921;BME280;61064;51.654;5.476;2024-02-26T09:12:37;100271.47;;;5.56;100.00
72921;BME280;61064;51.654;5.476;2024-02-26T09:15:06;100277.66;;;5.58;100.00
72921;BME280;61064;51.654;5.476;2024-02-26T09:17:31;100289.09;;;5.57;100.00
72921;BME280;61064;51.654;5.476;2024-02-26T09:19:57;100275.94;;;5.60;100.00
72921;BME280;61064;51.654;5.476;2024-02-26T09:22:22;100283.81;;;5.57;100.00
72921;BME280;61064;51.654;5.476;2024-02-26T09:24:48;100291.75;;;5.60;100.00
72921;BME280;61064;51.654;5.476;2024-02-26T09:27:15;100297.94;;;5.61;100.00
72921;BME280;61064;51.654;5.476;2024-02-26T09:29:41;100305.00;;;5.62;100.00
72921;BME280;61064;51.654;5.476;2024-02-26T09:32:07;100305.94;;;5.65;100.00
72921;BME280;61064;51.654;5.476;2024-02-26T09:34:32;100312.06;;;5.64;100.00
72921;BME280;61064;51.654;5.476;2024-02-26T09:36:58;100306.78;;;5.64;100.00
72921;BME280;61064;51.654;5.476;2024-02-26T09:39:24;100301.47;;;5.61;100.00
72921;BME280;61064;51.654;5.476;2024-02-26T09:41:49;100305.81;;;5.59;100.00
72921;BME280;61064;51.654;5.476;2024-02-26T09:44:24;100300.47;;;5.55;100.00
72921;BME280;61064;51.654;5.476;2024-02-26T09:46:52;100314.59;;;5.58;100.00
72921;BME280;61064;51.654;5.476;2024-02-26T09:49:19;100330.53;;;5.64;100.00
72921;BME280;61064;51.654;5.476;2024-02-26T09:51:49;100320.75;;;5.57;100.00
72921;BME280;61064;51.654;5.476;2024-02-26T09:54:15;100329.63;;;5.64;100.00
72921;BME280;61064;51.654;5.476;2024-02-26T09:56:41;100329.59;;;5.61;100.00
72921;BME280;61064;51.654;5.476;2024-02-26T09:59:11;100338.47;;;5.66;100.00
72921;BME280;61064;51.654;5.476;2024-02-26T10:01:41;100328.66;;;5.59;100.00
72921;BME280;61064;51.654;5.476;2024-02-26T10:04:08;100347.25;;;5.65;100.00
72921;BME280;61064;51.654;5.476;2024-02-26T10:06:34;100342.81;;;5.62;100.00
72921;BME280;61064;51.654;5.476;2024-02-26T10:09:00;100354.31;;;5.66;100.00
72921;BME280;61064;51.654;5.476;2024-02-26T10:11:27;100354.22;;;5.61;100.00
72921;BME280;61064;51.654;5.476;2024-02-26T10:13:53;100364.84;;;5.64;100.00
72921;BME280;61064;51.654;5.476;2024-02-26T10:16:18;100370.16;;;5.66;100.00
72921;BME280;61064;51.654;5.476;2024-02-26T10:18:53;100377.13;;;5.64;100.00
72921;BME280;61064;51.654;5.476;2024-02-26T10:21:22;100379.81;;;5.65;100.00
72921;BME280;61064;51.654;5.476;2024-02-26T10:23:48;100379.81;;;5.65;100.00
72921;BME280;61064;51.654;5.476;2024-02-26T10:26:15;100395.75;;;5.71;100.00
72921;BME280;61064;51.654;5.476;2024-02-26T10:28:45;100388.72;;;5.72;100.00
72921;BME280;61064;51.654;5.476;2024-02-26T10:31:11;100407.22;;;5.72;100.00
72921;BME280;61064;51.654;5.476;2024-02-26T10:33:39;100405.47;;;5.72;100.00
72921;BME280;61064;51.654;5.476;2024-02-26T10:36:05;100407.22;;;5.72;100.00
72921;BME280;61064;51.654;5.476;2024-02-26T10:38:35;100408.03;;;5.69;100.00
72921;BME280;61064;51.654;5.476;2024-02-26T10:41:12;100426.63;;;5.75;100.00
72921;BME280;61064;51.654;5.476;2024-02-26T10:43:38;100416.84;;;5.70;100.00
72921;BME280;61064;51.654;5.476;2024-02-26T10:46:03;100426.53;;;5.71;100.00
72921;BME280;61064;51.654;5.476;2024-02-26T10:48:28;100422.97;;;5.69;100.00
72921;BME280;61064;51.654;5.476;2024-02-26T10:50:54;100427.38;;;5.70;100.00
72921;BME280;61064;51.654;5.476;2024-02-26T10:53:22;100443.31;;;5.74;100.00
72921;BME280;61064;51.654;5.476;2024-02-26T10:56:00;100447.72;;;5.75;100.00
72921;BME280;61064;51.654;5.476;2024-02-26T10:58:27;100445.06;;;5.72;100.00
72921;BME280;61064;51.654;5.476;2024-02-26T11:00:56;100452.94;;;5.71;100.00
72921;BME280;61064;51.654;5.476;2024-02-26T11:03:22;100449.47;;;5.75;100.00
72921;BME280;61064;51.654;5.476;2024-02-26T11:05:49;100452.13;;;5.73;100.00
72921;BME280;61064;51.654;5.476;2024-02-26T11:08:16;100460.16;;;5.79;100.00
72921;BME280;61064;51.654;5.476;2024-02-26T11:10:43;100457.41;;;5.75;100.00
72921;BME280;61064;51.654;5.476;2024-02-26T11:13:10;100458.28;;;5.75;100.00
72921;BME280;61064;51.654;5.476;2024-02-26T11:15:38;100461.06;;;5.81;100.00
72921;BME280;61064;51.654;5.476;2024-02-26T11:18:04;100464.53;;;5.79;100.00
72921;BME280;61064;51.654;5.476;2024-02-26T11:20:32;100468.13;;;5.82;100.00
72921;BME280;61064;51.654;5.476;2024-02-26T11:22:58;100459.16;;;5.74;100.00
72921;BME280;61064;51.654;5.476;2024-02-26T11:25:24;100461.06;;;5.81;100.00
72921;BME280;61064;51.654;5.476;2024-02-26T11:27:52;100472.56;;;5.85;100.00
72921;BME280;61064;51.654;5.476;2024-02-26T11:30:19;100469.81;;;5.80;100.00
72921;BME280;61064;51.654;5.476;2024-02-26T11:32:46;100479.59;;;5.86;100.00
72921;BME280;61064;51.654;5.476;2024-02-26T11:35:12;100467.22;;;5.82;100.00
72921;BME280;61064;51.654;5.476;2024-02-26T11:37:40;100466.41;;;5.84;100.00
72921;BME280;61064;51.654;5.476;2024-02-26T11:40:11;100472.66;;;5.88;100.00
72921;BME280;61064;51.654;5.476;2024-02-26T11:42:43;100486.75;;;5.89;100.00
72921;BME280;61064;51.654;5.476;2024-02-26T11:48:03;100476.97;;;5.84;100.00
72921;BME280;61064;51.654;5.476;2024-02-26T11:50:36;100495.59;;;5.91;100.00
72921;BME280;61064;51.654;5.476;2024-02-26T11:58:43;100488.50;;;5.88;100.00
72921;BME280;61064;51.654;5.476;2024-02-26T12:09:10;100505.22;;;5.89;100.00
72921;BME280;61064;51.654;5.476;2024-02-26T12:11:40;100506.97;;;5.88;100.00
72921;BME280;61064;51.654;5.476;2024-02-26T12:14:07;100524.56;;;5.88;100.00
72921;BME280;61064;51.654;5.476;2024-02-26T12:16:40;100514.78;;;5.83;100.00
72921;BME280;61064;51.654;5.476;2024-02-26T12:19:11;100518.31;;;5.85;100.00
72921;BME280;61064;51.654;5.476;2024-02-26T12:21:37;100530.78;;;5.91;100.00
72921;BME280;61064;51.654;5.476;2024-02-26T12:24:13;100529.03;;;5.90;100.00
72921;BME280;61064;51.654;5.476;2024-02-26T12:26:41;100539.59;;;5.92;100.00
72921;BME280;61064;51.654;5.476;2024-02-26T12:29:07;100541.38;;;5.93;100.00
72921;BME280;61064;51.654;5.476;2024-02-26T12:31:33;100551.91;;;5.90;100.00
72921;BME280;61064;51.654;5.476;2024-02-26T12:34:03;100551.91;;;5.91;100.00
72921;BME280;61064;51.654;5.476;2024-02-26T12:36:29;100556.31;;;5.92;100.00
72921;BME280;61064;51.654;5.476;2024-02-26T12:38:55;100555.47;;;5.93;100.00
72921;BME280;61064;51.654;5.476;2024-02-26T12:41:22;100561.59;;;5.92;100.00
72921;BME280;61064;51.654;5.476;2024-02-26T12:43:47;100564.25;;;5.92;100.00
72921;BME280;61064;51.654;5.476;2024-02-26T12:46:13;100560.72;;;5.90;100.00
72921;BME280;61064;51.654;5.476;2024-02-26T12:48:42;100564.25;;;5.92;100.00
72921;BME280;61064;51.654;5.476;2024-02-26T12:51:08;100569.56;;;5.94;100.00
72921;BME280;61064;51.654;5.476;2024-02-26T12:53:35;100572.16;;;5.92;100.00
72921;BME280;61064;51.654;5.476;2024-02-26T12:56:02;100583.63;;;5.93;100.00
72921;BME280;61064;51.654;5.476;2024-02-26T12:58:29;100587.16;;;5.93;100.00
72921;BME280;61064;51.654;5.476;2024-02-26T13:00:59;100581.84;;;5.92;100.00
72921;BME280;61064;51.654;5.476;2024-02-26T13:03:25;100595.97;;;5.94;100.00
72921;BME280;61064;51.654;5.476;2024-02-26T13:05:50;100592.34;;;5.89;100.00
72921;BME280;61064;51.654;5.476;2024-02-26T13:08:20;100595.06;;;5.93;100.00
72921;BME280;61064;51.654;5.476;2024-02-26T13:10:46;100581.81;;;5.90;100.00